Flight Track Log - Related Links

Times and Time Zones

All times are in EST time to prevent confusion due to time zone crossing. See the FIN73 flight status page for this flight to view local times or setup timezone preferences in your user account.

Time Position Orientation Groundspeed Altitude Reporting Facility
EST Latitude Longitude Course Direction KTS MPH feet Rate Location/Type
Wed 11:08:00 AM 60.5598 25.5778 51° Northeast  Level Estimated
Wed 11:09:00 AM 60.6400 25.7847 52° Northeast  Level Estimated
Wed 11:10:00 AM 60.7200 25.9926 52° Northeast  Level Estimated
Wed 11:11:00 AM 60.7995 26.2016 52° Northeast  Level Estimated
Wed 11:12:00 AM 60.8788 26.4116 52° Northeast  Level Estimated
Wed 11:13:00 AM 60.9577 26.6226 52° Northeast  Level Estimated
Wed 11:14:00 AM 61.0363 26.8347 53° Northeast  Level Estimated
Wed 11:15:00 AM 61.1146 27.0478 53° Northeast  Level Estimated
Wed 11:16:00 AM 61.1925 27.2620 53° Northeast  Level Estimated
Wed 11:17:00 AM 61.2701 27.4772 53° Northeast  Level Estimated
Wed 11:18:00 AM 61.3474 27.6935 53° Northeast  Level Estimated
Wed 11:19:00 AM 61.4243 27.9109 53° Northeast  Level Estimated
Wed 11:20:00 AM 61.5008 28.1294 54° Northeast  Level Estimated
Wed 11:21:00 AM 61.5770 28.3489 54° Northeast  Level Estimated
Wed 11:22:00 AM 61.6529 28.5695 54° Northeast  Level Estimated
Wed 11:23:00 AM 61.7284 28.7912 54° Northeast  Level Estimated
Wed 11:24:00 AM 61.8035 29.0139 54° Northeast  Level Estimated
Wed 11:25:00 AM 61.8783 29.2378 55° Northeast  Level Estimated
Wed 11:26:00 AM 61.9527 29.4627 55° Northeast  Level Estimated
Wed 11:27:00 AM 62.0267 29.6888 55° Northeast  Level Estimated
Wed 11:28:00 AM 62.1004 29.9159 55° Northeast  Level Estimated
Wed 11:29:00 AM 62.1737 30.1442 55° Northeast  Level Estimated
Wed 11:30:00 AM 62.2466 30.3736 56° Northeast  Level Estimated
Wed 11:31:00 AM 62.3192 30.6040 56° Northeast  Level Estimated
Wed 11:32:00 AM 62.3913 30.8356 56° Northeast  Level Estimated
Wed 11:33:00 AM 62.4631 31.0683 56° Northeast  Level Estimated
Wed 11:34:00 AM 62.5345 31.3021 56° Northeast  Level Estimated
Wed 11:35:00 AM 62.6055 31.5370 57° Northeast  Level Estimated
Wed 11:36:00 AM 62.6760 31.7731 57° Northeast  Level Estimated
Wed 11:37:00 AM 62.7462 32.0103 57° Northeast  Level Estimated
Wed 11:38:00 AM 62.8160 32.2486 57° Northeast  Level Estimated
Wed 11:39:00 AM 62.8854 32.4880 57° Northeast  Level Estimated
Wed 11:40:00 AM 62.9544 32.7286 58° Northeast  Level Estimated
Wed 11:41:00 AM 63.0230 32.9703 58° Northeast  Level Estimated
Wed 11:42:00 AM 63.0911 33.2131 58° Northeast  Level Estimated
Wed 11:43:00 AM 63.1589 33.4571 58° Northeast  Level Estimated
Wed 11:44:00 AM 63.2262 33.7022 59° Northeast  Level Estimated
Wed 11:45:00 AM 63.2930 33.9485 59° Northeast  Level Estimated
Wed 11:46:00 AM 63.3595 34.1959 59° Northeast  Level Estimated
Wed 11:47:00 AM 63.4255 34.4444 59° Northeast  Level Estimated
Wed 11:48:00 AM 63.4911 34.6941 59° Northeast  Level Estimated
Wed 11:49:00 AM 63.5563 34.9450 60° Northeast  Level Estimated
Wed 11:50:00 AM 63.6210 35.1969 60° Northeast  Level Estimated
Wed 11:51:00 AM 63.6853 35.4501 60° Northeast  Level Estimated
Wed 11:52:00 AM 63.7491 35.7043 60° Northeast  Level Estimated
Wed 11:53:00 AM 63.8125 35.9598 61° Northeast  Level Estimated
Wed 11:54:00 AM 63.8754 36.2163 61° Northeast  Level Estimated
Wed 11:55:00 AM 63.9379 36.4740 61° Northeast  Level Estimated
Wed 11:56:00 AM 63.9999 36.7329 61° Northeast  Level Estimated
Wed 11:57:00 AM 64.0615 36.9929 61° Northeast  Level Estimated
Wed 11:58:00 AM 64.1226 37.2541 62° Northeast  Level Estimated
Wed 11:59:00 AM 64.1832 37.5163 62° Northeast  Level Estimated
Wed 12:00:00 PM 64.2433 37.7798 62° Northeast  Level Estimated
Wed 12:01:00 PM 64.3030 38.0444 62° Northeast  Level Estimated
Wed 12:02:00 PM 64.3622 38.3101 63° Northeast  Level Estimated
Wed 12:03:00 PM 64.4209 38.5770 63° Northeast  Level Estimated
Wed 12:04:00 PM 64.4791 38.8450 63° Northeast  Level Estimated
Wed 12:05:00 PM 64.5369 39.1142 63° Northeast  Level Estimated
Wed 12:06:00 PM 64.5941 39.3845 64° Northeast  Level Estimated
Wed 12:07:00 PM 64.6508 39.6559 64° Northeast  Level Estimated
Wed 12:08:00 PM 64.7071 39.9284 64° Northeast  Level Estimated
Wed 12:09:00 PM 64.7628 40.2021 64° Northeast  Level Estimated
Wed 12:10:00 PM 64.8180 40.4769 65° Northeast  Level Estimated
Wed 12:11:00 PM 64.8728 40.7529 65° Northeast  Level Estimated
Wed 12:12:00 PM 64.9270 41.0299 65° Northeast  Level Estimated
Wed 12:13:00 PM 64.9807 41.3081 65° Northeast  Level Estimated
Wed 12:14:00 PM 65.0338 41.5874 66° East  Level Estimated
Wed 12:15:00 PM 65.0865 41.8678 66° East  Level Estimated
Wed 12:16:00 PM 65.1386 42.1493 66° East  Level Estimated
Wed 12:17:00 PM 65.1902 42.4319 66° East  Level Estimated
Wed 12:18:00 PM 65.2413 42.7156 67° East  Level Estimated
Wed 12:19:00 PM 65.2918 43.0004 67° East  Level Estimated
Wed 12:20:00 PM 65.3418 43.2863 67° East  Level Estimated
Wed 12:21:00 PM 65.3912 43.5733 67° East  Level Estimated
Wed 12:22:00 PM 65.4401 43.8614 68° East  Level Estimated
Wed 12:23:00 PM 65.4885 44.1505 68° East  Level Estimated
Wed 12:24:00 PM 65.5363 44.4407 68° East  Level Estimated
Wed 12:25:00 PM 65.5835 44.7319 68° East  Level Estimated
Wed 12:26:00 PM 65.6302 45.0242 69° East  Level Estimated
Wed 12:27:00 PM 65.6763 45.3175 69° East  Level Estimated
Wed 12:28:00 PM 65.7218 45.6119 69° East  Level Estimated
Wed 12:29:00 PM 65.7668 45.9073 70° East  Level Estimated
Wed 12:30:00 PM 65.8112 46.2038 70° East  Level Estimated
Wed 12:31:00 PM 65.8551 46.5012 70° East  Level Estimated
Wed 12:32:00 PM 65.8983 46.7997 70° East  Level Estimated
Wed 12:33:00 PM 65.9410 47.0992 71° East  Level Estimated
Wed 12:34:00 PM 65.9831 47.3996 71° East  Level Estimated
Wed 12:35:00 PM 66.0246 47.7011 71° East  Level Estimated
Wed 12:36:00 PM 66.0655 48.0035 71° East  Level Estimated
Wed 12:37:00 PM 66.1058 48.3069 72° East  Level Estimated
Wed 12:38:00 PM 66.1456 48.6113 72° East  Level Estimated
Wed 12:39:00 PM 66.1847 48.9166 72° East  Level Estimated
Wed 12:40:00 PM 66.2232 49.2228 73° East  Level Estimated
Wed 12:41:00 PM 66.2611 49.5300 73° East  Level Estimated
Wed 12:42:00 PM 66.2984 49.8381 73° East  Level Estimated
Wed 12:43:00 PM 66.3351 50.1471 73° East  Level Estimated
Wed 12:44:00 PM 66.3712 50.4570 74° East  Level Estimated
Wed 12:45:00 PM 66.4066 50.7677 74° East  Level Estimated
Wed 12:46:00 PM 66.4415 51.0794 74° East  Level Estimated
Wed 12:47:00 PM 66.4757 51.3919 75° East  Level Estimated
Wed 12:48:00 PM 66.5093 51.7053 75° East  Level Estimated
Wed 12:49:00 PM 66.5422 52.0195 75° East  Level Estimated
Wed 12:50:00 PM 66.5746 52.3345 75° East  Level Estimated
Wed 12:51:00 PM 66.6063 52.6504 76° East  Level Estimated
Wed 12:52:00 PM 66.6373 52.9670 76° East  Level Estimated
Wed 12:53:00 PM 66.6678 53.2845 76° East  Level Estimated
Wed 12:54:00 PM 66.6975 53.6027 77° East  Level Estimated
Wed 12:55:00 PM 66.7267 53.9216 77° East  Level Estimated
Wed 12:56:00 PM 66.7552 54.2414 77° East  Level Estimated
Wed 12:57:00 PM 66.7830 54.5618 77° East  Level Estimated
Wed 12:58:00 PM 66.8102 54.8830 78° East  Level Estimated
Wed 12:59:00 PM 66.8368 55.2048 78° East  Level Estimated
Wed 01:00:00 PM 66.8626 55.5274 78° East  Level Estimated
Wed 01:01:00 PM 66.8879 55.8507 79° East  Level Estimated
Wed 01:02:00 PM 66.9125 56.1745 79° East  Level Estimated
Wed 01:03:00 PM 66.9364 56.4991 79° East  Level Estimated
Wed 01:04:00 PM 66.9596 56.8242 80° East  Level Estimated
Wed 01:05:00 PM 66.9822 57.1500 80° East  Level Estimated
Wed 01:06:00 PM 67.0041 57.4764 80° East  Level Estimated
Wed 01:07:00 PM 67.0253 57.8033 80° East  Level Estimated
Wed 01:08:00 PM 67.0459 58.1309 81° East  Level Estimated
Wed 01:09:00 PM 67.0658 58.4589 81° East  Level Estimated
Wed 01:10:00 PM 67.0850 58.7875 81° East  Level Estimated
Wed 01:11:00 PM 67.1036 59.1166 82° East  Level Estimated
Wed 01:12:00 PM 67.1214 59.4462 82° East  Level Estimated
Wed 01:13:00 PM 67.1386 59.7763 82° East  Level Estimated
Wed 01:14:00 PM 67.1551 60.1068 83° East  Level Estimated
Wed 01:15:00 PM 67.1709 60.4378 83° East  Level Estimated
Wed 01:16:00 PM 67.1861 60.7692 83° East  Level Estimated
Wed 01:17:00 PM 67.2005 61.1011 83° East  Level Estimated
Wed 01:18:00 PM 67.2143 61.4333 84° East  Level Estimated
Wed 01:19:00 PM 67.2273 61.7658 84° East  Level Estimated
Wed 01:20:00 PM 67.2397 62.0988 84° East  Level Estimated
Wed 01:21:00 PM 67.2514 62.4320 85° East  Level Estimated
Wed 01:22:00 PM 67.2624 62.7656 85° East  Level Estimated
Wed 01:23:00 PM 67.2727 63.0994 85° East  Level Estimated
Wed 01:24:00 PM 67.2823 63.4336 86° East  Level Estimated
Wed 01:25:00 PM 67.2912 63.7680 86° East  Level Estimated
Wed 01:26:00 PM 67.2995 64.1027 86° East  Level Estimated
Wed 01:27:00 PM 67.3070 64.4375 87° East  Level Estimated
Wed 01:28:00 PM 67.3138 64.7726 87° East  Level Estimated
Wed 01:29:00 PM 67.3199 65.1078 87° East  Level Estimated
Wed 01:30:00 PM 67.3254 65.4433 87° East  Level Estimated
Wed 01:31:00 PM 67.3301 65.7788 88° East  Level Estimated
Wed 01:32:00 PM 67.3342 66.1145 88° East  Level Estimated
Wed 01:33:00 PM 67.3375 66.4503 88° East  Level Estimated
Wed 01:34:00 PM 67.3401 66.7861 89° East  Level Estimated
Wed 01:35:00 PM 67.3421 67.1221 89° East  Level Estimated
Wed 01:36:00 PM 67.3433 67.4580 89° East  Level Estimated
Wed 01:37:00 PM 67.3439 67.7940 90° East  Level Estimated
Wed 01:38:00 PM 67.3437 68.1300 90° East  Level Estimated
Wed 01:39:00 PM 67.3428 68.4660 90° East  Level Estimated
Wed 01:40:00 PM 67.3413 68.8020 91° East  Level Estimated
Wed 01:41:00 PM 67.3390 69.1379 91° East  Level Estimated
Wed 01:42:00 PM 67.3360 69.4737 91° East  Level Estimated
Wed 01:43:00 PM 67.3324 69.8094 91° East  Level Estimated
Wed 01:44:00 PM 67.3280 70.1451 92° East  Level Estimated
Wed 01:45:00 PM 67.3230 70.4805 92° East  Level Estimated
Wed 01:46:00 PM 67.3172 70.8159 92° East  Level Estimated
Wed 01:47:00 PM 67.3107 71.1510 93° East  Level Estimated
Wed 01:48:00 PM 67.3036 71.4860 93° East  Level Estimated
Wed 01:49:00 PM 67.2957 71.8208 93° East  Level Estimated
Wed 01:50:00 PM 67.2872 72.1553 94° East  Level Estimated
Wed 01:51:00 PM 67.2779 72.4896 94° East  Level Estimated
Wed 01:52:00 PM 67.2680 72.8236 94° East  Level Estimated
Wed 01:53:00 PM 67.2574 73.1574 95° East  Level Estimated
Wed 01:54:00 PM 67.2460 73.4908 95° East  Level Estimated
Wed 01:55:00 PM 67.2340 73.8239 95° East  Level Estimated
Wed 01:56:00 PM 67.2213 74.1567 95° East  Level Estimated
Wed 01:57:00 PM 67.2079 74.4891 96° East  Level Estimated
Wed 01:58:00 PM 67.1938 74.8211 96° East  Level Estimated
Wed 01:59:00 PM 67.1791 75.1527 96° East  Level Estimated
Wed 02:00:00 PM 67.1636 75.4839 97° East  Level Estimated
Wed 02:01:00 PM 67.1475 75.8147 97° East  Level Estimated
Wed 02:02:00 PM 67.1306 76.1450 97° East  Level Estimated
Wed 02:03:00 PM 67.1131 76.4749 98° East  Level Estimated
Wed 02:04:00 PM 67.0950 76.8043 98° East  Level Estimated
Wed 02:05:00 PM 67.0761 77.1331 98° East  Level Estimated
Wed 02:06:00 PM 67.0566 77.4615 99° East  Level Estimated
Wed 02:07:00 PM 67.0363 77.7893 99° East  Level Estimated
Wed 02:08:00 PM 67.0155 78.1165 99° East  Level Estimated
Wed 02:09:00 PM 66.9939 78.4432 99° East  Level Estimated
Wed 02:10:00 PM 66.9717 78.7693 100° East  Level Estimated
Wed 02:11:00 PM 66.9488 79.0948 100° East  Level Estimated
Wed 02:12:00 PM 66.9252 79.4197 100° East  Level Estimated
Wed 02:13:00 PM 66.9010 79.7439 101° East  Level Estimated
Wed 02:14:00 PM 66.8762 80.0675 101° East  Level Estimated
Wed 02:15:00 PM 66.8506 80.3904 101° East  Level Estimated
Wed 02:16:00 PM 66.8244 80.7127 102° East  Level Estimated
Wed 02:17:00 PM 66.7976 81.0342 102° East  Level Estimated
Wed 02:18:00 PM 66.7701 81.3550 102° East  Level Estimated
Wed 02:19:00 PM 66.7419 81.6752 102° East  Level Estimated
Wed 02:20:00 PM 66.7131 81.9945 103° East  Level Estimated
Wed 02:21:00 PM 66.6837 82.3131 103° East  Level Estimated
Wed 02:22:00 PM 66.6536 82.6310 103° East  Level Estimated
Wed 02:23:00 PM 66.6229 82.9481 104° East  Level Estimated
Wed 02:24:00 PM 66.5915 83.2643 104° East  Level Estimated
Wed 02:25:00 PM 66.5595 83.5798 104° East  Level Estimated
Wed 02:26:00 PM 66.5269 83.8945 104° East  Level Estimated
Wed 02:27:00 PM 66.4936 84.2083 105° East  Level Estimated
Wed 02:28:00 PM 66.4597 84.5212 105° East  Level Estimated
Wed 02:29:00 PM 66.4252 84.8334 105° East  Level Estimated
Wed 02:30:00 PM 66.3901 85.1446 106° East  Level Estimated
Wed 02:31:00 PM 66.3543 85.4550 106° East  Level Estimated
Wed 02:32:00 PM 66.3180 85.7645 106° East  Level Estimated
Wed 02:33:00 PM 66.2810 86.0730 106° East  Level Estimated
Wed 02:34:00 PM 66.2434 86.3807 107° East  Level Estimated
Wed 02:35:00 PM 66.2052 86.6874 107° East  Level Estimated
Wed 02:36:00 PM 66.1664 86.9932 107° East  Level Estimated
Wed 02:37:00 PM 66.1270 87.2981 108° East  Level Estimated
Wed 02:38:00 PM 66.0870 87.6020 108° East  Level Estimated
Wed 02:39:00 PM 66.0464 87.9050 108° East  Level Estimated
Wed 02:40:00 PM 66.0052 88.2069 108° East  Level Estimated
Wed 02:41:00 PM 65.9634 88.5079 109° East  Level Estimated
Wed 02:42:00 PM 65.9211 88.8079 109° East  Level Estimated
Wed 02:43:00 PM 65.8781 89.1069 109° East  Level Estimated
Wed 02:44:00 PM 65.8346 89.4049 110° East  Level Estimated
Wed 02:45:00 PM 65.7905 89.7019 110° East  Level Estimated
Wed 02:46:00 PM 65.7458 89.9979 110° East  Level Estimated
Wed 02:47:00 PM 65.7006 90.2928 110° East  Level Estimated
Wed 02:48:00 PM 65.6547 90.5867 111° Southeast  Level Estimated
Wed 02:49:00 PM 65.6084 90.8795 111° Southeast  Level Estimated
Wed 02:50:00 PM 65.5614 91.1713 111° Southeast  Level Estimated
Wed 02:51:00 PM 65.5139 91.4621 111° Southeast  Level Estimated
Wed 02:52:00 PM 65.4659 91.7518 112° Southeast  Level Estimated
Wed 02:53:00 PM 65.4173 92.0404 112° Southeast  Level Estimated
Wed 02:54:00 PM 65.3681 92.3279 112° Southeast  Level Estimated
Wed 02:55:00 PM 65.3184 92.6144 112° Southeast  Level Estimated
Wed 02:56:00 PM 65.2682 92.8998 113° Southeast  Level Estimated
Wed 02:57:00 PM 65.2174 93.1841 113° Southeast  Level Estimated
Wed 02:58:00 PM 65.1661 93.4672 113° Southeast  Level Estimated
Wed 02:59:00 PM 65.1142 93.7493 113° Southeast  Level Estimated
Wed 03:00:00 PM 65.0619 94.0303 114° Southeast  Level Estimated
Wed 03:01:00 PM 65.0090 94.3102 114° Southeast  Level Estimated
Wed 03:02:00 PM 64.9556 94.5890 114° Southeast  Level Estimated
Wed 03:03:00 PM 64.9016 94.8666 115° Southeast  Level Estimated
Wed 03:04:00 PM 64.8472 95.1432 115° Southeast  Level Estimated
Wed 03:05:00 PM 64.7922 95.4186 115° Southeast  Level Estimated
Wed 03:06:00 PM 64.7367 95.6929 115° Southeast  Level Estimated
Wed 03:07:00 PM 64.6808 95.9660 116° Southeast  Level Estimated
Wed 03:08:00 PM 64.6243 96.2381 116° Southeast  Level Estimated
Wed 03:09:00 PM 64.5673 96.5089 116° Southeast  Level Estimated
Wed 03:10:00 PM 64.5098 96.7787 116° Southeast  Level Estimated
Wed 03:11:00 PM 64.4519 97.0473 116° Southeast  Level Estimated
Wed 03:12:00 PM 64.3934 97.3148 117° Southeast  Level Estimated
Wed 03:13:00 PM 64.3345 97.5811 117° Southeast  Level Estimated
Wed 03:14:00 PM 64.2751 97.8463 117° Southeast  Level Estimated
Wed 03:15:00 PM 64.2152 98.1104 117° Southeast  Level Estimated
Wed 03:16:00 PM 64.1548 98.3733 118° Southeast  Level Estimated
Wed 03:17:00 PM 64.0940 98.6351 118° Southeast  Level Estimated
Wed 03:18:00 PM 64.0327 98.8957 118° Southeast  Level Estimated
Wed 03:19:00 PM 63.9709 99.1552 118° Southeast  Level Estimated
Wed 03:20:00 PM 63.9087 99.4135 119° Southeast  Level Estimated
Wed 03:21:00 PM 63.8460 99.6706 119° Southeast  Level Estimated
Wed 03:22:00 PM 63.7828 99.9267 119° Southeast  Level Estimated
Wed 03:23:00 PM 63.7192 100.1816 119° Southeast  Level Estimated
Wed 03:24:00 PM 63.6552 100.4353 120° Southeast  Level Estimated
Wed 03:25:00 PM 63.5907 100.6879 120° Southeast  Level Estimated
Wed 03:26:00 PM 63.5258 100.9393 120° Southeast  Level Estimated
Wed 03:27:00 PM 63.4604 101.1896 120° Southeast  Level Estimated
Wed 03:28:00 PM 63.3946 101.4388 120° Southeast  Level Estimated
Wed 03:29:00 PM 63.3284 101.6868 121° Southeast  Level Estimated
Wed 03:30:00 PM 63.2617 101.9336 121° Southeast  Level Estimated
Wed 03:31:00 PM 63.1946 102.1794 121° Southeast  Level Estimated
Wed 03:32:00 PM 63.1271 102.4239 121° Southeast  Level Estimated
Wed 03:33:00 PM 63.0592 102.6674 122° Southeast  Level Estimated
Wed 03:34:00 PM 62.9908 102.9097 122° Southeast  Level Estimated
Wed 03:35:00 PM 62.9221 103.1508 122° Southeast  Level Estimated
Wed 03:36:00 PM 62.8529 103.3909 122° Southeast  Level Estimated
Wed 03:37:00 PM 62.7833 103.6298 122° Southeast  Level Estimated
Wed 03:38:00 PM 62.7133 103.8676 123° Southeast  Level Estimated
Wed 03:39:00 PM 62.6430 104.1042 123° Southeast  Level Estimated
Wed 03:40:00 PM 62.5722 104.3398 123° Southeast  Level Estimated
Wed 03:41:00 PM 62.5010 104.5742 123° Southeast  Level Estimated
Wed 03:42:00 PM 62.4295 104.8075 123° Southeast  Level Estimated
Wed 03:43:00 PM 62.3575 105.0396 124° Southeast  Level Estimated
Wed 03:44:00 PM 62.2852 105.2707 124° Southeast  Level Estimated
Wed 03:45:00 PM 62.2125 105.5006 124° Southeast  Level Estimated
Wed 03:46:00 PM 62.1394 105.7295 124° Southeast  Level Estimated
Wed 03:47:00 PM 62.0659 105.9572 124° Southeast  Level Estimated
Wed 03:48:00 PM 61.9921 106.1839 125° Southeast  Level Estimated
Wed 03:49:00 PM 61.9179 106.4094 125° Southeast  Level Estimated
Wed 03:50:00 PM 61.8433 106.6338 125° Southeast  Level Estimated
Wed 03:51:00 PM 61.7683 106.8572 125° Southeast  Level Estimated
Wed 03:52:00 PM 61.6930 107.0794 125° Southeast  Level Estimated
Wed 03:53:00 PM 61.6174 107.3006 126° Southeast  Level Estimated
Wed 03:54:00 PM 61.5414 107.5207 126° Southeast  Level Estimated
Wed 03:55:00 PM 61.4650 107.7397 126° Southeast  Level Estimated
Wed 03:56:00 PM 61.3883 107.9577 126° Southeast  Level Estimated
Wed 03:57:00 PM 61.3112 108.1745 126° Southeast  Level Estimated
Wed 03:58:00 PM 61.2338 108.3904 127° Southeast  Level Estimated
Wed 03:59:00 PM 61.1560 108.6051 127° Southeast  Level Estimated
Wed 04:00:00 PM 61.0779 108.8188 127° Southeast  Level Estimated
Wed 04:01:00 PM 60.9995 109.0314 127° Southeast  Level Estimated
Wed 04:02:00 PM 60.9208 109.2430 127° Southeast  Level Estimated
Wed 04:03:00 PM 60.8417 109.4535 128° Southeast  Level Estimated
Wed 04:04:00 PM 60.7622 109.6630 128° Southeast  Level Estimated
Wed 04:05:00 PM 60.6825 109.8715 128° Southeast  Level Estimated
Wed 04:06:00 PM 60.6025 110.0789 128° Southeast  Level Estimated
Wed 04:07:00 PM 60.5221 110.2853 128° Southeast  Level Estimated
Wed 04:08:00 PM 60.4414 110.4907 128° Southeast  Level Estimated
Wed 04:09:00 PM 60.3604 110.6951 129° Southeast  Level Estimated
Wed 04:10:00 PM 60.2790 110.8984 129° Southeast  Level Estimated
Wed 04:11:00 PM 60.1974 111.1007 129° Southeast  Level Estimated
Wed 04:12:00 PM 60.1155 111.3021 129° Southeast  Level Estimated
Wed 04:13:00 PM 60.0332 111.5024 129° Southeast  Level Estimated
Wed 04:14:00 PM 59.9506 111.7017 130° Southeast  Level Estimated
Wed 04:15:00 PM 59.8678 111.9000 130° Southeast  Level Estimated
Wed 04:16:00 PM 59.7847 112.0974 130° Southeast  Level Estimated
Wed 04:17:00 PM 59.7012 112.2937 130° Southeast  Level Estimated
Wed 04:18:00 PM 59.6175 112.4891 130° Southeast  Level Estimated
Wed 04:19:00 PM 59.5335 112.6835 130° Southeast  Level Estimated
Wed 04:20:00 PM 59.4492 112.8770 131° Southeast  Level Estimated
Wed 04:21:00 PM 59.3646 113.0695 131° Southeast  Level Estimated
Wed 04:22:00 PM 59.2797 113.2610 131° Southeast  Level Estimated
Wed 04:23:00 PM 59.1945 113.4516 131° Southeast  Level Estimated
Wed 04:24:00 PM 59.1091 113.6412 131° Southeast  Level Estimated
Wed 04:25:00 PM 59.0234 113.8298 131° Southeast  Level Estimated
Wed 04:26:00 PM 58.9374 114.0176 132° Southeast  Level Estimated
Wed 04:27:00 PM 58.8512 114.2044 132° Southeast  Level Estimated
Wed 04:28:00 PM 58.7647 114.3903 132° Southeast  Level Estimated
Wed 04:29:00 PM 58.6779 114.5752 132° Southeast  Level Estimated
Wed 04:30:00 PM 58.5908 114.7592 132° Southeast  Level Estimated
Wed 04:31:00 PM 58.5035 114.9423 132° Southeast  Level Estimated
Wed 04:32:00 PM 58.4160 115.1245 132° Southeast  Level Estimated
Wed 04:33:00 PM 58.3281 115.3058 133° Southeast  Level Estimated
Wed 04:34:00 PM 58.2401 115.4862 133° Southeast  Level Estimated
Wed 04:35:00 PM 58.1517 115.6657 133° Southeast  Level Estimated
Wed 04:36:00 PM 58.0631 115.8444 133° Southeast  Level Estimated
Wed 04:37:00 PM 57.9743 116.0221 133° Southeast  Level Estimated
Wed 04:38:00 PM 57.8852 116.1989 133° Southeast  Level Estimated
Wed 04:39:00 PM 57.7959 116.3749 134° Southeast  Level Estimated
Wed 04:40:00 PM 57.7063 116.5500 134° Southeast  Level Estimated
Wed 04:41:00 PM 57.6165 116.7242 134° Southeast  Level Estimated
Wed 04:42:00 PM 57.5265 116.8976 134° Southeast  Level Estimated
Wed 04:43:00 PM 57.4362 117.0701 134° Southeast  Level Estimated
Wed 04:44:00 PM 57.3457 117.2418 134° Southeast  Level Estimated
Wed 04:45:00 PM 57.2550 117.4126 134° Southeast  Level Estimated
Wed 04:46:00 PM 57.1640 117.5826 135° Southeast  Level Estimated
Wed 04:47:00 PM 57.0728 117.7518 135° Southeast  Level Estimated
Wed 04:48:00 PM 56.9813 117.9201 135° Southeast  Level Estimated
Wed 04:49:00 PM 56.8897 118.0876 135° Southeast  Level Estimated
Wed 04:50:00 PM 56.7978 118.2542 135° Southeast  Level Estimated
Wed 04:51:00 PM 56.7057 118.4201 135° Southeast  Level Estimated
Wed 04:52:00 PM 56.6134 118.5851 135° Southeast  Level Estimated
Wed 04:53:00 PM 56.5208 118.7494 136° Southeast  Level Estimated
Wed 04:54:00 PM 56.4281 118.9128 136° Southeast  Level Estimated
Wed 04:55:00 PM 56.3351 119.0755 136° Southeast  Level Estimated
Wed 04:56:00 PM 56.2419 119.2373 136° Southeast  Level Estimated
Wed 04:57:00 PM 56.1485 119.3984 136° Southeast  Level Estimated
Wed 04:58:00 PM 56.0550 119.5586 136° Southeast  Level Estimated
Wed 04:59:00 PM 55.9611 119.7181 136° Southeast  Level Estimated
Wed 05:00:00 PM 55.8671 119.8769 137° Southeast  Level Estimated
Wed 05:01:00 PM 55.7729 120.0348 137° Southeast  Level Estimated
Wed 05:02:00 PM 55.6785 120.1920 137° Southeast  Level Estimated
Wed 05:03:00 PM 55.5839 120.3485 137° Southeast  Level Estimated
Wed 05:04:00 PM 55.4891 120.5042 137° Southeast  Level Estimated
Wed 05:05:00 PM 55.3941 120.6591 137° Southeast  Level Estimated
Wed 05:06:00 PM 55.2989 120.8133 137° Southeast  Level Estimated
Wed 05:07:00 PM 55.2035 120.9668 137° Southeast  Level Estimated
Wed 05:08:00 PM 55.1079 121.1195 138° Southeast  Level Estimated
Wed 05:09:00 PM 55.0121 121.2715 138° Southeast  Level Estimated
Wed 05:10:00 PM 54.9161 121.4228 138° Southeast  Level Estimated
Wed 05:11:00 PM 54.8200 121.5733 138° Southeast  Level Estimated
Wed 05:12:00 PM 54.7236 121.7232 138° Southeast  Level Estimated
Wed 05:13:00 PM 54.6271 121.8723 138° Southeast  Level Estimated
Wed 05:14:00 PM 54.5304 122.0207 138° Southeast  Level Estimated
Wed 05:15:00 PM 54.4335 122.1684 138° Southeast  Level Estimated
Wed 05:16:00 PM 54.3364 122.3154 139° Southeast  Level Estimated
Wed 05:17:00 PM 54.2392 122.4617 139° Southeast  Level Estimated
Wed 05:18:00 PM 54.1418 122.6074 139° Southeast  Level Estimated
Wed 05:19:00 PM 54.0442 122.7523 139° Southeast  Level Estimated
Wed 05:20:00 PM 53.9464 122.8966 139° Southeast  Level Estimated
Wed 05:21:00 PM 53.8485 123.0402 139° Southeast  Level Estimated
Wed 05:22:00 PM 53.7504 123.1831 139° Southeast  Level Estimated
Wed 05:23:00 PM 53.6521 123.3254 139° Southeast  Level Estimated
Wed 05:24:00 PM 53.5536 123.4670 139° Southeast  Level Estimated
Wed 05:25:00 PM 53.4550 123.6079 140° Southeast  Level Estimated
Wed 05:26:00 PM 53.3562 123.7482 140° Southeast  Level Estimated
Wed 05:27:00 PM 53.2573 123.8878 140° Southeast  Level Estimated
Wed 05:28:00 PM 53.1582 124.0268 140° Southeast  Level Estimated
Wed 05:29:00 PM 53.0589 124.1652 140° Southeast  Level Estimated
Wed 05:30:00 PM 52.9595 124.3029 140° Southeast  Level Estimated
Wed 05:31:00 PM 52.8599 124.4400 140° Southeast  Level Estimated
Wed 05:32:00 PM 52.7602 124.5764 140° Southeast  Level Estimated
Wed 05:33:00 PM 52.6603 124.7122 140° Southeast  Level Estimated
Wed 05:34:00 PM 52.5602 124.8475 141° Southeast  Level Estimated
Wed 05:35:00 PM 52.4600 124.9820 141° Southeast  Level Estimated
Wed 05:36:00 PM 52.3596 125.1160 141° Southeast  Level Estimated
Wed 05:37:00 PM 52.2591 125.2494 141° Southeast  Level Estimated
Wed 05:38:00 PM 52.1585 125.3822 141° Southeast  Level Estimated
Wed 05:39:00 PM 52.0577 125.5143 141° Southeast  Level Estimated
Wed 05:40:00 PM 51.9567 125.6459 141° Southeast  Level Estimated
Wed 05:41:00 PM 51.8556 125.7769 141° Southeast  Level Estimated
Wed 05:42:00 PM 51.7543 125.9073 141° Southeast  Level Estimated
Wed 05:43:00 PM 51.6530 126.0371 142° Southeast  Level Estimated
Wed 05:44:00 PM 51.5514 126.1663 142° Southeast  Level Estimated
Wed 05:45:00 PM 51.4498 126.2950 142° Southeast  Level Estimated
Wed 05:46:00 PM 51.3479 126.4231 142° Southeast  Level Estimated
Wed 05:47:00 PM 51.2460 126.5506 142° Southeast  Level Estimated
Wed 05:48:00 PM 51.1439 126.6775 142° Southeast  Level Estimated
Wed 05:49:00 PM 51.0417 126.8039 142° Southeast  Level Estimated
Wed 05:50:00 PM 50.9393 126.9297 142° Southeast  Level Estimated
Wed 05:51:00 PM 50.8368 127.0550 142° Southeast  Level Estimated
Wed 05:52:00 PM 50.7342 127.1797 142° Southeast  Level Estimated
Wed 05:53:00 PM 50.6314 127.3039 143° Southeast  Level Estimated
Wed 05:54:00 PM 50.5285 127.4276 143° Southeast  Level Estimated
Wed 05:55:00 PM 50.4255 127.5507 143° Southeast  Level Estimated
Wed 05:56:00 PM 50.3224 127.6732 143° Southeast  Level Estimated
Wed 05:57:00 PM 50.2191 127.7953 143° Southeast  Level Estimated
Wed 05:58:00 PM 50.1157 127.9168 143° Southeast  Level Estimated
Wed 05:59:00 PM 50.0121 128.0378 143° Southeast  Level Estimated
Wed 06:00:00 PM 49.9085 128.1582 143° Southeast  Level Estimated
Wed 06:01:00 PM 49.8047 128.2782 143° Southeast  Level Estimated
Wed 06:02:00 PM 49.7008 128.3976 143° Southeast  Level Estimated
Wed 06:03:00 PM 49.5967 128.5166 143° Southeast  Level Estimated
Wed 06:04:00 PM 49.4926 128.6350 144° Southeast  Level Estimated
Wed 06:05:00 PM 49.3883 128.7529 144° Southeast  Level Estimated
Wed 06:06:00 PM 49.2839 128.8703 144° Southeast  Level Estimated
Wed 06:07:00 PM 49.1794 128.9872 144° Southeast  Level Estimated
Wed 06:08:00 PM 49.0748 129.1037 144° Southeast  Level Estimated
Wed 06:09:00 PM 48.9700 129.2196 144° Southeast  Level Estimated
Wed 06:10:00 PM 48.8652 129.3351 144° Southeast  Level Estimated
Wed 06:11:00 PM 48.7602 129.4500 144° Southeast  Level Estimated
Wed 06:12:00 PM 48.6551 129.5645 144° Southeast  Level Estimated
Wed 06:13:00 PM 48.5499 129.6785 144° Southeast  Level Estimated
Wed 06:14:00 PM 48.4446 129.7921 144° Southeast  Level Estimated
Wed 06:15:00 PM 48.3392 129.9052 145° Southeast  Level Estimated
Wed 06:16:00 PM 48.2336 130.0177 145° Southeast  Level Estimated
Wed 06:17:00 PM 48.1280 130.1299 145° Southeast  Level Estimated
Wed 06:18:00 PM 48.0222 130.2416 145° Southeast  Level Estimated
Wed 06:19:00 PM 47.9164 130.3528 145° Southeast  Level Estimated
Wed 06:20:00 PM 47.8104 130.4635 145° Southeast  Level Estimated
Wed 06:21:00 PM 47.7043 130.5739 145° Southeast  Level Estimated
Wed 06:22:00 PM 47.5981 130.6837 145° Southeast  Level Estimated
Wed 06:23:00 PM 47.4919 130.7931 145° Southeast  Level Estimated
Wed 06:24:00 PM 47.3855 130.9021 145° Southeast  Level Estimated
Wed 06:25:00 PM 47.2790 131.0107 145° Southeast  Level Estimated
Wed 06:26:00 PM 47.1724 131.1188 145° Southeast  Level Estimated
Wed 06:27:00 PM 47.0657 131.2264 145° Southeast  Level Estimated
Wed 06:28:00 PM 46.9589 131.3337 146° Southeast  Level Estimated
Wed 06:29:00 PM 46.8520 131.4405 146° Southeast  Level Estimated
Wed 06:30:00 PM 46.7450 131.5469 146° Southeast  Level Estimated
Wed 06:31:00 PM 46.6379 131.6528 146° Southeast  Level Estimated
Wed 06:32:00 PM 46.5307 131.7584 146° Southeast  Level Estimated
Wed 06:33:00 PM 46.4234 131.8635 146° Southeast  Level Estimated
Wed 06:34:00 PM 46.3161 131.9682 146° Southeast  Level Estimated
Wed 06:35:00 PM 46.2086 132.0725 146° Southeast  Level Estimated
Wed 06:36:00 PM 46.1010 132.1764 146° Southeast  Level Estimated
Wed 06:37:00 PM 45.9933 132.2799 146° Southeast  Level Estimated
Wed 06:38:00 PM 45.8856 132.3830 146° Southeast  Level Estimated
Wed 06:39:00 PM 45.7777 132.4857 146° Southeast  Level Estimated
Wed 06:40:00 PM 45.6698 132.5880 146° Southeast  Level Estimated
Wed 06:41:00 PM 45.5618 132.6899 147° Southeast  Level Estimated
Wed 06:42:00 PM 45.4536 132.7914 147° Southeast  Level Estimated
Wed 06:43:00 PM 45.3454 132.8925 147° Southeast  Level Estimated
Wed 06:44:00 PM 45.2371 132.9933 147° Southeast  Level Estimated
Wed 06:45:00 PM 45.1287 133.0936 147° Southeast  Level Estimated
Wed 06:46:00 PM 45.0203 133.1936 147° Southeast  Level Estimated
Wed 06:47:00 PM 44.9117 133.2932 147° Southeast  Level Estimated
Wed 06:48:00 PM 44.8030 133.3924 147° Southeast  Level Estimated
Wed 06:49:00 PM 44.6943 133.4913 147° Southeast  Level Estimated
Wed 06:50:00 PM 44.5855 133.5897 147° Southeast  Level Estimated
Wed 06:51:00 PM 44.4766 133.6878 147° Southeast  Level Estimated
Wed 06:52:00 PM 44.3676 133.7856 147° Southeast  Level Estimated
Wed 06:53:00 PM 44.2585 133.8829 147° Southeast  Level Estimated
Wed 06:54:00 PM 44.1493 133.9800 147° Southeast  Level Estimated
Wed 06:55:00 PM 44.0401 134.0766 148° Southeast  Level Estimated
Wed 06:56:00 PM 43.9308 134.1729 148° Southeast  Level Estimated
Wed 06:57:00 PM 43.8214 134.2689 148° Southeast  Level Estimated
Wed 06:58:00 PM 43.7119 134.3645 148° Southeast  Level Estimated
Wed 06:59:00 PM 43.6023 134.4597 148° Southeast  Level Estimated
Wed 07:00:00 PM 43.4927 134.5546 148° Southeast  Level Estimated
Wed 07:01:00 PM 43.3830 134.6492 148° Southeast  Level Estimated
Wed 07:02:00 PM 43.2732 134.7434 148° Southeast  Level Estimated
Wed 07:03:00 PM 43.1633 134.8373 148° Southeast  Level Estimated
Wed 07:04:00 PM 43.0534 134.9308 148° Southeast  Level Estimated
Wed 07:05:00 PM 42.9434 135.0240 148° Southeast  Level Estimated
Wed 07:06:00 PM 42.8333 135.1169 148° Southeast  Level Estimated
Wed 07:07:00 PM 42.7231 135.2094 148° Southeast  Level Estimated
Wed 07:08:00 PM 42.6128 135.3017 148° Southeast  Level Estimated
Wed 07:09:00 PM 42.5025 135.3935 148° Southeast  Level Estimated
Wed 07:10:00 PM 42.3921 135.4851 149° Southeast  Level Estimated
Wed 07:11:00 PM 42.2817 135.5763 149° Southeast  Level Estimated
Wed 07:12:00 PM 42.1711 135.6673 149° Southeast  Level Estimated
Wed 07:13:00 PM 42.0605 135.7579 149° Southeast  Level Estimated
Wed 07:14:00 PM 41.9498 135.8481 149° Southeast  Level Estimated
Wed 07:15:00 PM 41.8391 135.9381 149° Southeast  Level Estimated
Wed 07:16:00 PM 41.7283 136.0278 149° Southeast  Level Estimated
Wed 07:17:00 PM 41.6174 136.1172 149° Southeast  Level Estimated
Wed 07:18:00 PM 41.5064 136.2062 149° Southeast  Level Estimated
Wed 07:19:00 PM 41.3954 136.2950 149° Southeast  Level Estimated
Wed 07:20:00 PM 41.2843 136.3834 149° Southeast  Level Estimated
Wed 07:21:00 PM 41.1731 136.4715 149° Southeast  Level Estimated
Wed 07:22:00 PM 41.0619 136.5594 149° Southeast  Level Estimated
Wed 07:23:00 PM 40.9506 136.6469 149° Southeast  Level Estimated
Wed 07:24:00 PM 40.8392 136.7342 149° Southeast  Level Estimated
Wed 07:25:00 PM 40.7278 136.8211 149° Southeast  Level Estimated
Wed 07:26:00 PM 40.6163 136.9078 149° Southeast  Level Estimated
Wed 07:27:00 PM 40.5047 136.9942 150° Southeast  Level Estimated
Wed 07:28:00 PM 40.3931 137.0803 150° Southeast  Level Estimated
Wed 07:29:00 PM 40.2814 137.1661 150° Southeast  Level Estimated
Wed 07:30:00 PM 40.1697 137.2516 150° Southeast  Level Estimated
Wed 07:31:00 PM 40.0579 137.3368 150° Southeast  Level Estimated
Wed 07:32:00 PM 39.9460 137.4218 150° Southeast  Level Estimated
Wed 07:33:00 PM 39.8341 137.5065 150° Southeast  Level Estimated
Wed 07:34:00 PM 39.7221 137.5909 150° Southeast  Level Estimated
Wed 07:35:00 PM 39.6100 137.6750 150° Southeast  Level Estimated
Wed 07:36:00 PM 39.4979 137.7589 150° Southeast  Level Estimated
Wed 07:37:00 PM 39.3857 137.8425 150° Southeast  Level Estimated
Wed 07:38:00 PM 39.2735 137.9258 150° Southeast  Level Estimated
Wed 07:39:00 PM 39.1612 138.0089 150° Southeast  Level Estimated
Wed 07:40:00 PM 39.0488 138.0917 150° Southeast  Level Estimated
Wed 07:41:00 PM 38.9364 138.1742 150° Southeast  Level Estimated
Wed 07:42:00 PM 38.8239 138.2565 150° Southeast  Level Estimated
Wed 07:43:00 PM 38.7114 138.3385 150° Southeast  Level Estimated
Wed 07:44:00 PM 38.5988 138.4202 150° Southeast  Level Estimated
Wed 07:45:00 PM 38.4862 138.5017 150° Southeast  Level Estimated
Wed 07:46:00 PM 38.3735 138.5830 151° Southeast  Level Estimated
Wed 07:47:00 PM 38.2607 138.6640 151° Southeast  Level Estimated
Wed 07:48:00 PM 38.1479 138.7447 151° Southeast  Level Estimated
Wed 07:49:00 PM 38.0350 138.8252 151° Southeast  Level Estimated
Wed 07:50:00 PM 37.9221 138.9054 151° Southeast  Level Estimated
Wed 07:51:00 PM 37.8091 138.9854 151° Southeast  Level Estimated
Wed 07:52:00 PM 37.6961 139.0652 151° Southeast  Level Estimated
Wed 07:53:00 PM 37.5830 139.1447 151° Southeast  Level Estimated
Wed 07:54:00 PM 37.4699 139.2240 151° Southeast  Level Estimated
Wed 07:55:00 PM 37.3567 139.3030 151° Southeast  Level Estimated
Wed 07:56:00 PM 37.2435 139.3818 151° Southeast  Level Estimated
Wed 07:57:00 PM 37.1302 139.4603 151° Southeast  Level Estimated
Wed 07:58:00 PM 37.0168 139.5387 151° Southeast  Level Estimated
Wed 07:59:00 PM 36.9034 139.6167 151° Southeast  Level Estimated
Wed 08:00:00 PM 36.7900 139.6946 151° Southeast  Level Estimated
Wed 08:01:00 PM 36.6765 139.7722 151° Southeast  Level Estimated
Wed 08:02:00 PM 36.5629 139.8496 151° Southeast  Level Estimated
Wed 08:03:00 PM 36.4493 139.9268 151° Southeast  Level Estimated
Wed 08:04:00 PM 36.3357 140.0037 151° Southeast  Level Estimated
Wed 08:05:00 PM 36.2220 140.0804 151° Southeast  Level Estimated
Wed 08:06:00 PM 36.1082 140.1569 151° Southeast  Level Estimated
Wed 08:07:00 PM 35.9944 140.2332 152° Southeast  Level Estimated
Wed 08:08:00 PM 35.8806 140.3092 152° Southeast  Level Estimated
Wed 08:09:00 PM 35.7667 140.3851 152° Southeast  Level Estimated
Wed 08:10:00 PM 35.7647 140.3864 152° Southeast  Level Estimated
Wed 08:11:00 PM 35.7647 140.3864 338° Northwest  Level Estimated
Wed 08:12:00 PM 35.7647 140.3864 338° Northwest  Level Estimated
Wed 08:13:00 PM 35.7647 140.3864 338° Northwest  Level Estimated
Wed 08:14:00 PM 35.7647 140.3864 338° Northwest  Level Estimated
Wed 08:15:00 PM 35.7647 140.3864 338° Northwest  Level Estimated
Wed 08:16:00 PM 35.7647 140.3864 338° Northwest  Level Estimated
Wed 08:17:00 PM 35.7647 140.3864 338° Northwest  Level Estimated
Wed 08:18:00 PM 35.7647 140.3864 338° Northwest  Level Estimated
Wed 08:19:00 PM 35.7647 140.3864 338° Northwest  Level Estimated
Wed 08:20:00 PM 35.7647 140.3864 338° Northwest  Level Estimated
Wed 08:21:00 PM 35.7647 140.3864 338° Northwest  Level Estimated
Wed 08:22:00 PM 35.7647 140.3864 338° Northwest  Level Estimated
Wed 08:23:00 PM 35.7647 140.3864 338° Northwest  Level Estimated

Login

Don't have an account? Register now (free) for customized features, flight alerts, and more!